Feesburg, OH (45119)

8:46 AM EST on December 21, 2014 (GMT -0500)
Hamersville, Ohio 45130 | Change Station
CLOSE
Current Station
Personal Weather Station
Location: Hamersville, OH
Elevation: 968 ft
Nearby Weather Stations

Elev 968 ft 38.90 °N, 83.94 °W | Updated 2 minutes ago

Mostly Cloudy
Mostly Cloudy
28.6 °F
Feels Like 25 °F
N
3.2
Wind Variable Wind from East

Today
High -- | Low -- °F
--% Chance of Precip.
Yesterday
High -- | Low -- °F
Precip. -- in
7:50 AM 5:17 PM
Waning Crescent, 0% visible
Pressure 30.31 in
Visibility 7.0 miles
Clouds Overcast 1600 ft
Windchill 25 °F
Dew Point 27 °F
Humidity 92%
Rainfall 0.00 in
Snow Depth Not available.
UV 0 out of 12
Pollen .10 out of 12
Air Quality Not available.
Flu Activity Not available.
METAR KI69 211333Z AUTO 10004KT 7SM OVC016 00/M03 A3031 RMK AO1

More Conditions Fewer Conditions

Pressure 30.31 in
Visibility 7.0 miles
Clouds Overcast 1600 ft
Windchill 25 °F
Dew Point 27 °F
Humidity 92%
Rainfall 0.00 in
Snow Depth Not available.
UV 0 out of 12
Pollen .10 out of 12
Air Quality Not available.
Flu Activity Not available.
METAR KI69 211333Z AUTO 10004KT 7SM OVC016 00/M03 A3031 RMK AO1

More Conditions Fewer Conditions

10-Day Weather Forecast

Almanac

Astronomy

Dec. 21, 2014 Rise Set
Actual Time
Civil Twilight
Nautical Twilight
Astronomical Twilight
Moon
Length of Visible Light
Length of Day
Tomorrow will be .
, % of the Moon is Illuminated

Today's Extremes

State Highs State Lows

Community

WunderPhotos

Upload Photos

1,779,386 photos uploaded!

WunderBlogs® & News

Nearby

Air Quality

  Air Quality AQ Index Pollutant
Not available.

Snow Depth

Station Depth Elevation

Earthquake Activity

City Distance Mag. Time & Date
Minimum magnitude displayed is 2.5.

Coastal Water Temperatures

Place Temperature

Nearby Weather Stations